Time;durP1;ratioP1;P1;durP2;ratioP2;P2;SDS_P1;SDS_P2;PMS_P1;PMS_P2;Temp;Humidity;BMP_temperature;BMP_pressure;BME280_temperature;BME280_humidity;BME280_pressure;Samples;Min_cycle;Max_cycle;Signal;HPM_P1;HPM_P2
2022/09/17 00:02:19;;;;;;;1999.90;999.90;;;;;;;-144.65;100.00;64500.88;5023555;28;20030;-75
2022/09/17 00:04:46;;;;;;;1999.90;999.90;;;;;;;-144.65;100.00;64500.88;5014650;28;20026;-75
2022/09/17 00:07:12;;;;;;;1999.90;999.90;;;;;;;-144.65;100.00;64500.88;5019413;28;20060;-74
2022/09/17 00:09:37;;;;;;;1999.90;999.90;;;;;;;-144.65;100.00;64500.88;5019394;28;20046;-75
2022/09/17 00:12:03;;;;;;;1999.90;999.90;;;;;;;-144.65;100.00;64500.88;5018336;28;20113;-75
2022/09/17 00:14:28;;;;;;;1999.90;999.90;;;;;;;-144.65;100.00;64500.88;5018807;28;20049;-76
2022/09/17 00:16:53;;;;;;;1999.90;999.90;;;;;;;-144.65;100.00;64500.88;5018579;28;20080;-75
2022/09/17 00:19:21;;;;;;;1999.90;999.90;;;;;;;-144.65;100.00;64500.88;4996986;28;20371;-75
2022/09/17 00:21:47;;;;;;;1999.90;999.90;;;;;;;-144.65;100.00;64500.88;5010977;28;20703;-75
2022/09/17 00:24:14;;;;;;;1999.90;999.90;;;;;;;-144.65;100.00;64500.88;5011197;28;20029;-75
2022/09/17 00:26:39;;;;;;;1999.90;999.90;;;;;;;-144.65;100.00;64500.88;5011170;28;20018;-75
2022/09/17 00:29:05;;;;;;;1999.90;999.90;;;;;;;-144.65;100.00;64500.88;5012790;28;20034;-75
2022/09/17 00:31:31;;;;;;;1999.90;999.90;;;;;;;-144.65;100.00;64500.88;5011295;28;20037;-75
2022/09/17 00:33:58;;;;;;;1999.90;999.90;;;;;;;-144.65;100.00;64500.88;5011230;28;20018;-75
2022/09/17 00:36:24;;;;;;;1999.90;999.90;;;;;;;-144.65;100.00;64500.88;5011231;28;20117;-75
2022/09/17 00:38:55;;;;;;;1999.90;999.90;;;;;;;-144.65;100.00;64500.88;5011088;28;20137;-75
2022/09/17 00:41:22;;;;;;;1999.90;999.90;;;;;;;-144.65;100.00;64500.88;5010499;28;20026;-75
2022/09/17 00:43:53;;;;;;;1999.90;999.90;;;;;;;-144.65;100.00;64500.88;5010702;28;20036;-75
2022/09/17 00:46:40;;;;;;;1999.90;999.90;;;;;;;-144.65;100.00;64500.88;5010709;28;20564;-75
2022/09/17 00:49:22;;;;;;;1999.90;999.90;;;;;;;-144.65;100.00;64500.88;5011364;28;20056;-75
2022/09/17 00:52:00;;;;;;;1999.90;999.90;;;;;;;-144.65;100.00;64500.88;5010666;28;20030;-75
2022/09/17 00:54:25;;;;;;;1999.90;999.90;;;;;;;-144.65;100.00;64500.88;5013476;28;20025;-75
2022/09/17 00:56:51;;;;;;;1999.90;999.90;;;;;;;-144.65;100.00;64500.88;5014440;28;20030;-74
2022/09/17 00:59:18;;;;;;;1999.90;999.90;;;;;;;-144.65;100.00;64500.88;5014443;28;20025;-74
2022/09/17 01:01:43;;;;;;;1999.90;999.90;;;;;;;-144.65;100.00;64500.88;5014322;28;20466;-74
2022/09/17 01:04:16;;;;;;;1999.90;999.90;;;;;;;-144.65;100.00;64500.88;5014454;28;20037;-74
2022/09/17 01:06:47;;;;;;;1999.90;999.90;;;;;;;-144.65;100.00;64500.88;5002446;28;20026;-75
2022/09/17 01:09:27;;;;;;;1999.90;999.90;;;;;;;-144.65;100.00;64500.88;5011536;28;20068;-74
2022/09/17 01:12:03;;;;;;;1999.90;999.90;;;;;;;-144.65;100.00;64500.88;5014054;28;20046;-75
2022/09/17 01:15:19;;;;;;;1999.90;999.90;;;;;;;-144.65;100.00;64500.88;4993505;28;20033;-74
2022/09/17 01:17:49;;;;;;;1999.90;999.90;;;;;;;-144.65;100.00;64500.88;4899614;29;20046;-75
2022/09/17 01:20:27;;;;;;;1999.90;999.90;;;;;;;-144.65;100.00;64500.88;4899333;29;20237;-75
2022/09/17 01:23:01;;;;;;;1999.90;999.90;;;;;;;-144.65;100.00;64500.88;4979723;28;20044;-74
2022/09/17 01:25:30;;;;;;;1999.90;999.90;;;;;;;-144.65;100.00;64500.88;5013961;28;20494;-74
2022/09/17 01:28:13;;;;;;;1999.90;999.90;;;;;;;-144.65;100.00;64500.88;5014009;28;20122;-74
2022/09/17 01:30:50;;;;;;;1999.90;999.90;;;;;;;-144.65;100.00;64500.88;5014011;28;20037;-74
2022/09/17 01:33:20;;;;;;;1999.90;999.90;;;;;;;-144.65;100.00;64500.88;5013999;28;20018;-74
2022/09/17 01:35:58;;;;;;;1999.90;999.90;;;;;;;-144.65;100.00;64500.88;5013700;28;20733;-75
2022/09/17 01:38:43;;;;;;;1999.90;999.90;;;;;;;-144.65;100.00;64500.88;5013622;28;20116;-74
2022/09/17 01:41:15;;;;;;;1999.90;999.90;;;;;;;-144.65;100.00;64500.88;4996226;28;20491;-75
2022/09/17 01:44:11;;;;;;;1999.90;999.90;;;;;;;-144.65;100.00;64500.88;5013678;28;20490;-75
2022/09/17 01:46:50;;;;;;;1999.90;999.90;;;;;;;-144.65;100.00;64500.88;5013931;28;20069;-74
2022/09/17 01:49:16;;;;;;;1999.90;999.90;;;;;;;-144.65;100.00;64500.88;5017861;28;20386;-74
2022/09/17 01:51:47;;;;;;;1999.90;999.90;;;;;;;-144.65;100.00;64500.88;5025218;28;20395;-74
2022/09/17 01:54:19;;;;;;;1999.90;999.90;;;;;;;-144.65;100.00;64500.88;5015677;28;20113;-75
2022/09/17 01:56:55;;;;;;;1999.90;999.90;;;;;;;-144.65;100.00;64500.88;5013275;28;20496;-74
2022/09/17 01:59:31;;;;;;;1999.90;999.90;;;;;;;-144.65;100.00;64500.88;5013495;28;20026;-74
2022/09/17 02:02:26;;;;;;;1999.90;999.90;;;;;;;-144.65;100.00;64500.88;5013174;28;20088;-76
2022/09/17 02:05:01;;;;;;;1999.90;999.90;;;;;;;-144.65;100.00;64500.88;5012261;28;20054;-74
2022/09/17 02:07:30;;;;;;;1999.90;999.90;;;;;;;-144.65;100.00;64500.88;5013802;28;20038;-75
2022/09/17 02:10:05;;;;;;;1999.90;999.90;;;;;;;-144.65;100.00;64500.88;4995528;28;20453;-75
2022/09/17 02:12:37;;;;;;;1999.90;999.90;;;;;;;-144.65;100.00;64500.88;5013185;28;20778;-75
2022/09/17 02:15:10;;;;;;;1999.90;999.90;;;;;;;-144.65;100.00;64500.88;5012188;28;20513;-74
2022/09/17 02:17:48;;;;;;;1999.90;999.90;;;;;;;-144.65;100.00;64500.88;4995659;28;20390;-74
2022/09/17 02:20:15;;;;;;;1999.90;999.90;;;;;;;-144.65;100.00;64500.88;5014006;28;20418;-75
2022/09/17 02:22:56;;;;;;;1999.90;999.90;;;;;;;-144.65;100.00;64500.88;5013168;28;20033;-75
2022/09/17 02:25:32;;;;;;;1999.90;999.90;;;;;;;-144.65;100.00;64500.88;5013070;28;20026;-75
2022/09/17 02:28:02;;;;;;;1999.90;999.90;;;;;;;-144.65;100.00;64500.88;5012939;28;20083;-74
2022/09/17 02:30:28;;;;;;;1999.90;999.90;;;;;;;-144.65;100.00;64500.88;5012653;28;20080;-75
2022/09/17 02:32:55;;;;;;;1999.90;999.90;;;;;;;-144.65;100.00;64500.88;5012810;28;20058;-75
2022/09/17 02:35:21;;;;;;;1999.90;999.90;;;;;;;-144.65;100.00;64500.88;5012600;28;20435;-74
2022/09/17 02:37:46;;;;;;;1999.90;999.90;;;;;;;-144.65;100.00;64500.88;5012788;28;20034;-74
2022/09/17 02:40:15;;;;;;;1999.90;999.90;;;;;;;-144.65;100.00;64500.88;5012386;28;20030;-74
2022/09/17 02:43:01;;;;;;;1999.90;999.90;;;;;;;-144.65;100.00;64500.88;5012776;28;20486;-73
2022/09/17 02:45:39;;;;;;;1999.90;999.90;;;;;;;-144.65;100.00;64500.88;5013045;28;20497;-74
2022/09/17 02:48:17;;;;;;;1999.90;999.90;;;;;;;-144.65;100.00;64500.88;5013593;28;20030;-74
2022/09/17 02:51:00;;;;;;;1999.90;999.90;;;;;;;-144.65;100.00;64500.88;5012730;28;20038;-75
2022/09/17 02:53:51;;;;;;;1999.90;999.90;;;;;;;-144.65;100.00;64500.88;5012241;28;20104;-74
2022/09/17 02:56:47;;;;;;;1999.90;999.90;;;;;;;-144.65;100.00;64500.88;5012404;28;20040;-74
2022/09/17 02:59:22;;;;;;;1999.90;999.90;;;;;;;-144.65;100.00;64500.88;5012625;28;20030;-74
2022/09/17 03:01:54;;;;;;;1999.90;999.90;;;;;;;-144.65;100.00;64500.88;5013215;28;20108;-74
2022/09/17 03:04:23;;;;;;;1999.90;999.90;;;;;;;-144.65;100.00;64500.88;5012364;28;20114;-74
2022/09/17 03:06:51;;;;;;;1999.90;999.90;;;;;;;-144.65;100.00;64500.88;5012289;28;20089;-74
2022/09/17 03:09:16;;;;;;;1999.90;999.90;;;;;;;-144.65;100.00;64500.88;5012254;28;20038;-74
2022/09/17 03:11:42;;;;;;;1999.90;999.90;;;;;;;-144.65;100.00;64500.88;5012855;28;20076;-74
2022/09/17 03:14:07;;;;;;;1999.90;999.90;;;;;;;-144.65;100.00;64500.88;5012850;28;20037;-74
2022/09/17 03:16:33;;;;;;;1999.90;999.90;;;;;;;-144.65;100.00;64500.88;5011997;28;20026;-75
2022/09/17 03:18:58;;;;;;;1999.90;999.90;;;;;;;-144.65;100.00;64500.88;5012386;28;20030;-74
2022/09/17 03:21:24;;;;;;;1999.90;999.90;;;;;;;-144.65;100.00;64500.88;5011877;28;20036;-75
2022/09/17 03:23:49;;;;;;;1999.90;999.90;;;;;;;-144.65;100.00;64500.88;5011884;28;20037;-74
2022/09/17 03:26:14;;;;;;;1999.90;999.90;;;;;;;-144.65;100.00;64500.88;5011966;28;20379;-74
2022/09/17 03:28:40;;;;;;;1999.90;999.90;;;;;;;-144.65;100.00;64500.88;5000153;28;20093;-74
2022/09/17 03:31:05;;;;;;;1999.90;999.90;;;;;;;-144.65;100.00;64500.88;5009802;28;20066;-75
2022/09/17 03:33:31;;;;;;;1999.90;999.90;;;;;;;-144.65;100.00;64500.88;5006972;28;20033;-75
2022/09/17 03:35:56;;;;;;;1999.90;999.90;;;;;;;-144.65;100.00;64500.88;4990588;28;20085;-74
2022/09/17 03:38:22;;;;;;;1999.90;999.90;;;;;;;-144.65;100.00;64500.88;4993512;28;20022;-74
2022/09/17 03:40:59;;;;;;;1999.90;999.90;;;;;;;-144.65;100.00;64500.88;4982250;28;20066;-74
2022/09/17 03:43:24;;;;;;;1999.90;999.90;;;;;;;-144.65;100.00;64500.88;4996412;28;20053;-74
2022/09/17 03:45:51;;;;;;;1999.90;999.90;;;;;;;-144.65;100.00;64500.88;4996854;28;20474;-75
2022/09/17 03:48:16;;;;;;;1999.90;999.90;;;;;;;-144.65;100.00;64500.88;5011576;28;20034;-74
2022/09/17 03:50:42;;;;;;;1999.90;999.90;;;;;;;-144.65;100.00;64500.88;5011368;28;20034;-75
2022/09/17 03:53:07;;;;;;;1999.90;999.90;;;;;;;-144.65;100.00;64500.88;5011012;28;20037;-74
2022/09/17 03:55:32;;;;;;;1999.90;999.90;;;;;;;-144.65;100.00;64500.88;5010997;28;20033;-74
2022/09/17 03:57:58;;;;;;;1999.90;999.90;;;;;;;-144.65;100.00;64500.88;5011002;28;20044;-75
2022/09/17 04:00:24;;;;;;;1999.90;999.90;;;;;;;-144.65;100.00;64500.88;5011013;28;20053;-75
2022/09/17 04:02:49;;;;;;;1999.90;999.90;;;;;;;-144.65;100.00;64500.88;5010874;28;20073;-75
2022/09/17 04:05:16;;;;;;;1999.90;999.90;;;;;;;-144.65;100.00;64500.88;5011043;28;20112;-74
2022/09/17 04:07:41;;;;;;;1999.90;999.90;;;;;;;-144.65;100.00;64500.88;5010815;28;20037;-75
2022/09/17 04:10:07;;;;;;;1999.90;999.90;;;;;;;-144.65;100.00;64500.88;5010903;28;20349;-74
2022/09/17 04:12:33;;;;;;;1999.90;999.90;;;;;;;-144.65;100.00;64500.88;5010565;28;20033;-75
2022/09/17 04:14:58;;;;;;;1999.90;999.90;;;;;;;-144.65;100.00;64500.88;5010752;28;20483;-75
2022/09/17 04:17:23;;;;;;;1999.90;999.90;;;;;;;-144.65;100.00;64500.88;5011184;28;20084;-75
2022/09/17 04:19:50;;;;;;;1999.90;999.90;;;;;;;-144.65;100.00;64500.88;5011376;28;20045;-74
2022/09/17 04:22:15;;;;;;;1999.90;999.90;;;;;;;-144.65;100.00;64500.88;5005946;28;20030;-75
2022/09/17 04:24:41;;;;;;;1999.90;999.90;;;;;;;-144.65;100.00;64500.88;4991189;28;20118;-75
2022/09/17 04:27:06;;;;;;;1999.90;999.90;;;;;;;-144.65;100.00;64500.88;4991022;28;20027;-75
2022/09/17 04:29:31;;;;;;;1999.90;999.90;;;;;;;-144.65;100.00;64500.88;4994208;28;20022;-74
2022/09/17 04:31:57;;;;;;;1999.90;999.90;;;;;;;-144.65;100.00;64500.88;4994989;28;20403;-74
2022/09/17 04:34:22;;;;;;;1999.90;999.90;;;;;;;-144.65;100.00;64500.88;4995164;28;20061;-74
2022/09/17 04:36:47;;;;;;;1999.90;999.90;;;;;;;-144.65;100.00;64500.88;4994801;28;20038;-75
2022/09/17 04:39:13;;;;;;;1999.90;999.90;;;;;;;-144.65;100.00;64500.88;4995720;28;20058;-75
2022/09/17 04:41:39;;;;;;;1999.90;999.90;;;;;;;-144.65;100.00;64500.88;4995270;28;20563;-75
2022/09/17 04:44:05;;;;;;;1999.90;999.90;;;;;;;-144.65;100.00;64500.88;4995004;28;20133;-75
2022/09/17 04:46:30;;;;;;;1999.90;999.90;;;;;;;-144.65;100.00;64500.88;4994950;28;20109;-75
2022/09/17 04:48:56;;;;;;;1999.90;999.90;;;;;;;-144.65;100.00;64500.88;4995252;28;20054;-75
2022/09/17 04:51:21;;;;;;;1999.90;999.90;;;;;;;-144.65;100.00;64500.88;4994941;28;20478;-74
2022/09/17 04:53:47;;;;;;;1999.90;999.90;;;;;;;-144.65;100.00;64500.88;4995141;28;20080;-75
2022/09/17 04:56:12;;;;;;;1999.90;999.90;;;;;;;-144.65;100.00;64500.88;4994828;28;20551;-75
2022/09/17 04:58:38;;;;;;;1999.90;999.90;;;;;;;-144.65;100.00;64500.88;4994964;28;20053;-75
2022/09/17 05:01:03;;;;;;;1999.90;999.90;;;;;;;-144.65;100.00;64500.88;4994643;28;20518;-74
2022/09/17 05:03:28;;;;;;;1999.90;999.90;;;;;;;-144.65;100.00;64500.88;4994545;28;20035;-75
2022/09/17 05:05:54;;;;;;;1999.90;999.90;;;;;;;-144.65;100.00;64500.88;4994677;28;20030;-75
2022/09/17 05:08:21;;;;;;;1999.90;999.90;;;;;;;-144.65;100.00;64500.88;4994470;28;20081;-76
2022/09/17 05:10:51;;;;;;;1999.90;999.90;;;;;;;-144.65;100.00;64500.88;4994673;28;20038;-76
2022/09/17 05:13:17;;;;;;;1999.90;999.90;;;;;;;-144.65;100.00;64500.88;4994618;28;20034;-74
2022/09/17 05:15:42;;;;;;;1999.90;999.90;;;;;;;-144.65;100.00;64500.88;4994158;28;20034;-75
2022/09/17 05:18:09;;;;;;;1999.90;999.90;;;;;;;-144.65;100.00;64500.88;4994701;28;20027;-74
2022/09/17 05:20:34;;;;;;;1999.90;999.90;;;;;;;-144.65;100.00;64500.88;4994161;28;20391;-75
2022/09/17 05:23:00;;;;;;;1999.90;999.90;;;;;;;-144.65;100.00;64500.88;5004803;28;20124;-74
2022/09/17 05:25:25;;;;;;;1999.90;999.90;;;;;;;-144.65;100.00;64500.88;5014382;28;20490;-75
2022/09/17 05:27:52;;;;;;;1999.90;999.90;;;;;;;-144.65;100.00;64500.88;5008896;28;20084;-75
2022/09/17 05:30:18;;;;;;;1999.90;999.90;;;;;;;-144.65;100.00;64500.88;5026836;28;20497;-74
2022/09/17 05:32:43;;;;;;;1999.90;999.90;;;;;;;-144.65;100.00;64500.88;5019511;28;20105;-75
2022/09/17 05:35:09;;;;;;;1999.90;999.90;;;;;;;-144.65;100.00;64500.88;5013594;28;20038;-75
2022/09/17 05:37:35;;;;;;;1999.90;999.90;;;;;;;-144.65;100.00;64500.88;5013451;28;20030;-75
2022/09/17 05:40:03;;;;;;;1999.90;999.90;;;;;;;-144.65;100.00;64500.88;5013584;28;20034;-75
2022/09/17 05:42:28;;;;;;;1999.90;999.90;;;;;;;-144.65;100.00;64500.88;5013355;28;20048;-75
2022/09/17 05:44:53;;;;;;;1999.90;999.90;;;;;;;-144.65;100.00;64500.88;5013556;28;20386;-75
2022/09/17 05:47:19;;;;;;;1999.90;999.90;;;;;;;-144.65;100.00;64500.88;5013606;28;20034;-75
2022/09/17 05:49:44;;;;;;;1999.90;999.90;;;;;;;-144.65;100.00;64500.88;5014669;28;20021;-75
2022/09/17 05:52:09;;;;;;;1999.90;999.90;;;;;;;-144.65;100.00;64500.88;5013322;28;20026;-76
2022/09/17 05:54:35;;;;;;;1999.90;999.90;;;;;;;-144.65;100.00;64500.88;5013731;28;20026;-76
2022/09/17 05:57:00;;;;;;;1999.90;999.90;;;;;;;-144.65;100.00;64500.88;5013561;28;20073;-75
2022/09/17 05:59:26;;;;;;;1999.90;999.90;;;;;;;-144.65;100.00;64500.88;5013735;28;20094;-77
2022/09/17 06:01:52;;;;;;;1999.90;999.90;;;;;;;-144.65;100.00;64500.88;5013787;28;20022;-75
2022/09/17 06:04:17;;;;;;;1999.90;999.90;;;;;;;-144.65;100.00;64500.88;5013033;28;20541;-74
2022/09/17 06:06:43;;;;;;;1999.90;999.90;;;;;;;-144.65;100.00;64500.88;5012836;28;20042;-75
2022/09/17 06:09:09;;;;;;;1999.90;999.90;;;;;;;-144.65;100.00;64500.88;5013258;28;20069;-75
2022/09/17 06:11:35;;;;;;;1999.90;999.90;;;;;;;-144.65;100.00;64500.88;5013839;28;20026;-75
2022/09/17 06:14:01;;;;;;;1999.90;999.90;;;;;;;-144.65;100.00;64500.88;5013696;28;20121;-75
2022/09/17 06:16:26;;;;;;;1999.90;999.90;;;;;;;-144.65;100.00;64500.88;5012864;28;20112;-74
2022/09/17 06:18:52;;;;;;;1999.90;999.90;;;;;;;-144.65;100.00;64500.88;5013156;28;20041;-75
2022/09/17 06:21:20;;;;;;;1999.90;999.90;;;;;;;-144.65;100.00;64500.88;5013182;28;20030;-75
2022/09/17 06:23:46;;;;;;;1999.90;999.90;;;;;;;-144.65;100.00;64500.88;5012913;28;20348;-76
2022/09/17 06:26:12;;;;;;;1999.90;999.90;;;;;;;-144.65;100.00;64500.88;5012957;28;20048;-76
2022/09/17 06:28:38;;;;;;;1999.90;999.90;;;;;;;-144.65;100.00;64500.88;5012718;28;20471;-76
2022/09/17 06:31:06;;;;;;;1999.90;999.90;;;;;;;-144.65;100.00;64500.88;5012762;28;20049;-75
2022/09/17 06:33:31;;;;;;;1999.90;999.90;;;;;;;-144.65;100.00;64500.88;5018130;28;20025;-76
2022/09/17 06:36:02;;;;;;;1999.90;999.90;;;;;;;-144.65;100.00;64500.88;5013703;28;20083;-75
2022/09/17 06:38:29;;;;;;;1999.90;999.90;;;;;;;-144.65;100.00;64500.88;5013885;28;20025;-76
2022/09/17 06:40:54;;;;;;;1999.90;999.90;;;;;;;-144.65;100.00;64500.88;5012178;28;20018;-76
2022/09/17 06:43:21;;;;;;;1999.90;999.90;;;;;;;-144.65;100.00;64500.88;5015802;28;20083;-76
2022/09/17 06:46:00;;;;;;;1999.90;999.90;;;;;;;-144.65;100.00;64500.88;5024457;28;20024;-76
2022/09/17 06:48:28;;;;;;;1999.90;999.90;;;;;;;-144.65;100.00;64500.88;5021030;28;20021;-76
2022/09/17 06:51:00;;;;;;;1999.90;999.90;;;;;;;-144.65;100.00;64500.88;5016618;28;20055;-76
2022/09/17 06:53:26;;;;;;;1999.90;999.90;;;;;;;-144.65;100.00;64500.88;5020311;28;20017;-74
2022/09/17 06:55:51;;;;;;;1999.90;999.90;;;;;;;-144.65;100.00;64500.88;5021612;28;20038;-75
2022/09/17 06:58:16;;;;;;;1999.90;999.90;;;;;;;-144.65;100.00;64500.88;5017067;28;20032;-75
2022/09/17 07:00:42;;;;;;;1999.90;999.90;;;;;;;-144.65;100.00;64500.88;5017734;28;20080;-74
2022/09/17 07:03:08;;;;;;;1999.90;999.90;;;;;;;-144.65;100.00;64500.88;5023872;28;20045;-75
2022/09/17 07:05:34;;;;;;;1999.90;999.90;;;;;;;-144.65;100.00;64500.88;5001564;28;20046;-76
2022/09/17 07:08:02;;;;;;;1999.90;999.90;;;;;;;-144.65;100.00;64500.88;5019657;28;20466;-76
2022/09/17 07:10:30;;;;;;;1999.90;999.90;;;;;;;-144.65;100.00;64500.88;5021063;28;20104;-76
2022/09/17 07:12:58;;;;;;;1999.90;999.90;;;;;;;-144.65;100.00;64500.88;5022608;28;20053;-76
2022/09/17 07:15:23;;;;;;;1999.90;999.90;;;;;;;-144.65;100.00;64500.88;5020222;28;20037;-77
2022/09/17 07:17:49;;;;;;;1999.90;999.90;;;;;;;-144.65;100.00;64500.88;5021153;28;20042;-77
2022/09/17 07:20:14;;;;;;;1999.90;999.90;;;;;;;-144.65;100.00;64500.88;5019567;28;20026;-78
2022/09/17 07:22:40;;;;;;;1999.90;999.90;;;;;;;-144.65;100.00;64500.88;4993613;28;20105;-76
2022/09/17 07:25:06;;;;;;;1999.90;999.90;;;;;;;-144.65;100.00;64500.88;5010667;28;20038;-77
2022/09/17 07:27:31;;;;;;;1999.90;999.90;;;;;;;-144.65;100.00;64500.88;5010426;28;20033;-75
2022/09/17 07:29:57;;;;;;;1999.90;999.90;;;;;;;-144.65;100.00;64500.88;5010536;28;20044;-77
2022/09/17 07:32:23;;;;;;;1999.90;999.90;;;;;;;-144.65;100.00;64500.88;5010776;28;20097;-75
2022/09/17 07:34:49;;;;;;;1999.90;999.90;;;;;;;-144.65;100.00;64500.88;5010907;28;20044;-76
2022/09/17 07:37:15;;;;;;;1999.90;999.90;;;;;;;-144.65;100.00;64500.88;5010702;28;20492;-75
2022/09/17 07:39:41;;;;;;;1999.90;999.90;;;;;;;-144.65;100.00;64500.88;5010778;28;20037;-75
2022/09/17 07:42:08;;;;;;;1999.90;999.90;;;;;;;-144.65;100.00;64500.88;5011196;28;20097;-75
2022/09/17 07:44:33;;;;;;;1999.90;999.90;;;;;;;-144.65;100.00;64500.88;5011434;28;20556;-76
2022/09/17 07:46:59;;;;;;;1999.90;999.90;;;;;;;-144.65;100.00;64500.88;5011362;28;20022;-75
2022/09/17 07:49:24;;;;;;;1999.90;999.90;;;;;;;-144.65;100.00;64500.88;5011447;28;20071;-75
2022/09/17 07:51:50;;;;;;;1999.90;999.90;;;;;;;-144.65;100.00;64500.88;5008432;28;20038;-76
2022/09/17 07:54:15;;;;;;;1999.90;999.90;;;;;;;-144.65;100.00;64500.88;5010831;28;20085;-77
2022/09/17 07:56:41;;;;;;;1999.90;999.90;;;;;;;-144.65;100.00;64500.88;5008880;28;20053;-75
2022/09/17 07:59:10;;;;;;;1999.90;999.90;;;;;;;-144.65;100.00;64500.88;5010420;28;20112;-75
2022/09/17 08:01:36;;;;;;;1999.90;999.90;;;;;;;-144.65;100.00;64500.88;5010911;28;20396;-75
2022/09/17 08:04:03;;;;;;;1999.90;999.90;;;;;;;-144.65;100.00;64500.88;4992429;28;20041;-76
2022/09/17 08:06:30;;;;;;;1999.90;999.90;;;;;;;-144.65;100.00;64500.88;5009910;28;20037;-75
2022/09/17 08:08:58;;;;;;;1999.90;999.90;;;;;;;-144.65;100.00;64500.88;4993634;28;20056;-75
2022/09/17 08:11:29;;;;;;;1999.90;999.90;;;;;;;-144.65;100.00;64500.88;4993991;28;20113;-75
2022/09/17 08:13:54;;;;;;;1999.90;999.90;;;;;;;-144.65;100.00;64500.88;4993166;28;20565;-74
2022/09/17 08:16:21;;;;;;;1999.90;999.90;;;;;;;-144.65;100.00;64500.88;5010512;28;20193;-74
2022/09/17 08:18:48;;;;;;;1999.90;999.90;;;;;;;-144.65;100.00;64500.88;5011257;28;20033;-74
2022/09/17 08:21:17;;;;;;;1999.90;999.90;;;;;;;-144.65;100.00;64500.88;5018094;28;20545;-74
2022/09/17 08:23:43;;;;;;;1999.90;999.90;;;;;;;-144.65;100.00;64500.88;5018895;28;20442;-74
2022/09/17 08:26:14;;;;;;;1999.90;999.90;;;;;;;-144.65;100.00;64500.88;5012226;28;20080;-74
2022/09/17 08:28:43;;;;;;;1999.90;999.90;;;;;;;-144.65;100.00;64500.88;5016153;28;20026;-74
2022/09/17 08:31:09;;;;;;;1999.90;999.90;;;;;;;-144.65;100.00;64500.88;5021545;28;20028;-75
2022/09/17 08:33:36;;;;;;;1999.90;999.90;;;;;;;-144.65;100.00;64500.88;5024665;28;20452;-74
2022/09/17 08:36:02;;;;;;;1999.90;999.90;;;;;;;-144.65;100.00;64500.88;5030976;28;20428;-74
2022/09/17 08:38:31;;;;;;;1999.90;999.90;;;;;;;-144.65;100.00;64500.88;5026198;28;20029;-75
2022/09/17 08:41:05;;;;;;;1999.90;999.90;;;;;;;-144.65;100.00;64500.88;5012402;28;20422;-75
2022/09/17 08:43:40;;;;;;;1999.90;999.90;;;;;;;-144.65;100.00;64500.88;5011292;28;20126;-75
2022/09/17 08:46:09;;;;;;;1999.90;999.90;;;;;;;-144.65;100.00;64500.88;5013758;28;20474;-74
2022/09/17 08:48:41;;;;;;;1999.90;999.90;;;;;;;-144.65;100.00;64500.88;5013019;28;20029;-76
2022/09/17 08:51:38;;;;;;;1999.90;999.90;;;;;;;-144.65;100.00;64500.88;5018481;28;20033;-75
2022/09/17 08:54:39;;;;;;;1999.90;999.90;;;;;;;-144.65;100.00;64500.88;4984265;28;20046;-75
2022/09/17 08:57:23;;;;;;;1999.90;999.90;;;;;;;-144.65;100.00;64500.88;5014398;28;20095;-76
2022/09/17 09:00:12;;;;;;;1999.90;999.90;;;;;;;-144.65;100.00;64500.88;5014622;28;20093;-76
2022/09/17 09:03:02;;;;;;;1999.90;999.90;;;;;;;-144.65;100.00;64500.88;5018814;28;20036;-76
2022/09/17 09:05:41;;;;;;;1999.90;999.90;;;;;;;-144.65;100.00;64500.88;5008232;28;20030;-76
2022/09/17 09:08:35;;;;;;;1999.90;999.90;;;;;;;-144.65;100.00;64500.88;5003630;28;20042;-75
2022/09/17 09:11:11;;;;;;;1999.90;999.90;;;;;;;-144.65;100.00;64500.88;4990346;28;20100;-75
2022/09/17 09:13:44;;;;;;;1999.90;999.90;;;;;;;-144.65;100.00;64500.88;4991126;28;20021;-75
2022/09/17 09:16:29;;;;;;;1999.90;999.90;;;;;;;-144.65;100.00;64500.88;4994653;28;20023;-75
2022/09/17 09:19:09;;;;;;;1999.90;999.90;;;;;;;-144.65;100.00;64500.88;5008561;28;20041;-75
2022/09/17 09:21:49;;;;;;;1999.90;999.90;;;;;;;-144.65;100.00;64500.88;5026142;28;20489;-75
2022/09/17 09:24:28;;;;;;;1999.90;999.90;;;;;;;-144.65;100.00;64500.88;5030070;28;20714;-75
2022/09/17 09:27:23;;;;;;;1999.90;999.90;;;;;;;-144.65;100.00;64500.88;5008597;28;20041;-75
2022/09/17 09:30:05;;;;;;;1999.90;999.90;;;;;;;-144.65;100.00;64500.88;5001596;28;20033;-74
2022/09/17 09:32:40;;;;;;;1999.90;999.90;;;;;;;-144.65;100.00;64500.88;5012101;28;20033;-75
2022/09/17 09:35:22;;;;;;;1999.90;999.90;;;;;;;-144.65;100.00;64500.88;5011931;28;20022;-75
2022/09/17 09:37:56;;;;;;;1999.90;999.90;;;;;;;-144.65;100.00;64500.88;5012131;28;20037;-75
2022/09/17 09:40:32;;;;;;;1999.90;999.90;;;;;;;-144.65;100.00;64500.88;5011100;28;20053;-75
2022/09/17 09:43:02;;;;;;;1999.90;999.90;;;;;;;-144.65;100.00;64500.88;5012273;28;20037;-75
2022/09/17 09:45:42;;;;;;;1999.90;999.90;;;;;;;-144.65;100.00;64500.88;5011864;28;20026;-75
2022/09/17 09:48:34;;;;;;;1999.90;999.90;;;;;;;-144.65;100.00;64500.88;4998878;28;20734;-74
2022/09/17 09:51:20;;;;;;;1999.90;999.90;;;;;;;-144.65;100.00;64500.88;5012342;28;20048;-75
2022/09/17 09:53:56;;;;;;;1999.90;999.90;;;;;;;-144.65;100.00;64500.88;5011987;28;20798;-75
2022/09/17 09:56:40;;;;;;;;;;;;;;;-144.65;100.00;64500.88;5013948;28;20026;-76
2022/09/17 09:59:10;;;;;;;1999.90;999.90;;;;;;;-144.65;100.00;64500.88;5012902;28;19917;-76
2022/09/17 10:01:41;;;;;;;1999.90;999.90;;;;;;;-144.65;100.00;64500.88;4999506;28;20026;-75
2022/09/17 10:04:21;;;;;;;1999.90;999.90;;;;;;;-144.65;100.00;64500.88;5011650;28;20030;-75
2022/09/17 10:06:50;;;;;;;1999.90;999.90;;;;;;;-144.65;100.00;64500.88;5011903;28;20052;-75
2022/09/17 10:09:20;;;;;;;1999.90;999.90;;;;;;;-144.65;100.00;64500.88;5011514;28;20050;-76
2022/09/17 10:12:18;;;;;;;1999.90;999.90;;;;;;;-144.65;100.00;64500.88;4991651;28;20136;-75
2022/09/17 10:14:45;;;;;;;1999.90;999.90;;;;;;;-144.65;100.00;64500.88;4967530;28;20104;-76
2022/09/17 10:17:23;;;;;;;1999.90;999.90;;;;;;;-144.65;100.00;64500.88;5006849;28;20057;-76
2022/09/17 10:19:58;;;;;;;1999.90;999.90;;;;;;;-144.65;100.00;64500.88;4994583;28;20019;-76
2022/09/17 10:22:33;;;;;;;1999.90;999.90;;;;;;;-144.65;100.00;64500.88;5011594;28;20121;-75
2022/09/17 10:24:59;;;;;;;1999.90;999.90;;;;;;;-144.65;100.00;64500.88;5011507;28;20097;-76
2022/09/17 10:27:26;;;;;;;1999.90;999.90;;;;;;;-144.65;100.00;64500.88;5010820;28;20053;-76
2022/09/17 10:30:02;;;;;;;1999.90;999.90;;;;;;;-144.65;100.00;64500.88;5009359;28;20029;-75
2022/09/17 10:32:28;;;;;;;1999.90;999.90;;;;;;;-144.65;100.00;64500.88;4993606;28;20031;-77
2022/09/17 10:35:24;;;;;;;1999.90;999.90;;;;;;;-144.65;100.00;64500.88;5004352;28;20386;-78
2022/09/17 10:37:52;;;;;;;1999.90;999.90;;;;;;;-144.65;100.00;64500.88;5011312;28;20033;-77
2022/09/17 10:40:20;;;;;;;1999.90;999.90;;;;;;;-144.65;100.00;64500.88;5012111;28;20026;-70
2022/09/17 10:42:46;;;;;;;1999.90;999.90;;;;;;;-144.65;100.00;64500.88;5010689;28;20044;-69
2022/09/17 10:45:30;;;;;;;1999.90;999.90;;;;;;;-144.65;100.00;64500.88;5011125;28;20490;-72
2022/09/17 10:47:58;;;;;;;1999.90;999.90;;;;;;;-144.65;100.00;64500.88;5011252;28;20048;-72